createdAt,value
2019-01-25T00:02:15.578Z,63.67
2019-01-25T00:04:47.053Z,59.80
2019-01-25T00:07:20.470Z,57.03
2019-01-25T00:09:58.472Z,62.50
2019-01-25T00:12:25.622Z,56.13
2019-01-25T00:14:57.584Z,61.13
2019-01-25T00:17:30.982Z,63.80
2019-01-25T00:20:03.535Z,63.27
2019-01-25T00:22:36.932Z,58.87
2019-01-25T00:25:09.847Z,53.30
2019-01-25T00:27:43.314Z,63.90
2019-01-25T00:30:16.774Z,59.10
2019-01-25T00:32:48.722Z,61.93
2019-01-25T00:35:20.737Z,58.30
2019-01-25T00:37:52.429Z,53.90
2019-01-25T00:40:26.110Z,53.10
2019-01-25T00:42:57.775Z,56.70
2019-01-25T00:45:29.639Z,64.20
2019-01-25T00:48:01.387Z,66.80
2019-01-25T00:50:34.595Z,55.40
2019-01-25T00:53:06.787Z,58.63
2019-01-25T00:55:38.542Z,53.07
2019-01-25T00:58:10.501Z,55.03
2019-01-25T01:00:43.773Z,59.80
2019-01-25T01:03:15.831Z,50.60
2019-01-25T01:05:50.053Z,46.17
2019-01-25T01:08:21.619Z,47.33
2019-01-25T01:10:54.761Z,49.37
2019-01-25T01:13:26.540Z,50.00
2019-01-25T01:15:58.459Z,53.10
2019-01-25T01:18:30.258Z,49.97
2019-01-25T01:21:01.718Z,51.03
2019-01-25T01:23:33.865Z,48.50
2019-01-25T01:26:05.645Z,54.40
2019-01-25T01:28:37.711Z,51.83
2019-01-25T01:31:09.777Z,50.10
2019-01-25T01:33:41.365Z,43.83
2019-01-25T01:36:13.443Z,52.20
2019-01-25T01:38:45.083Z,50.20
2019-01-25T01:41:16.793Z,61.37
2019-01-25T01:43:48.481Z,56.30
2019-01-25T01:46:20.273Z,66.17
2019-01-25T01:48:53.351Z,64.57
2019-01-25T01:51:24.907Z,124.70
2019-01-25T01:53:56.551Z,71.30
2019-01-25T01:56:29.815Z,92.53
2019-01-25T01:59:01.834Z,102.83
2019-01-25T02:01:34.500Z,88.77
2019-01-25T02:04:06.031Z,69.13
2019-01-25T02:06:37.802Z,128.43
2019-01-25T02:09:09.857Z,108.90
2019-01-25T02:11:41.701Z,97.67
2019-01-25T02:14:13.254Z,103.13
2019-01-25T02:16:44.716Z,95.53
2019-01-25T02:19:16.461Z,93.83
2019-01-25T02:21:48.838Z,165.73
2019-01-25T02:24:21.272Z,141.23
2019-01-25T02:26:53.412Z,141.83
2019-01-25T02:29:25.358Z,242.77
2019-01-25T02:31:57.355Z,249.80
2019-01-25T02:34:29.075Z,182.77
2019-01-25T02:37:01.176Z,109.20
2019-01-25T02:39:32.874Z,283.90
2019-01-25T02:42:04.512Z,283.97
2019-01-25T02:44:39.310Z,313.10
2019-01-25T02:47:12.699Z,241.07
2019-01-25T02:49:44.510Z,263.67
2019-01-25T02:52:16.230Z,200.17
2019-01-25T02:54:47.790Z,140.27
2019-01-25T02:57:19.640Z,124.77
2019-01-25T02:59:53.238Z,193.60
2019-01-25T03:02:24.802Z,88.37
2019-01-25T03:04:56.231Z,116.27
2019-01-25T03:07:29.848Z,99.83
2019-01-25T03:10:01.439Z,136.93
2019-01-25T03:12:33.427Z,166.27
2019-01-25T03:15:06.686Z,172.27
2019-01-25T03:17:38.818Z,177.07
2019-01-25T03:20:11.835Z,449.83
2019-01-25T03:22:43.457Z,177.77
2019-01-25T03:25:17.994Z,82.97
2019-01-25T03:27:49.868Z,285.30
2019-01-25T03:30:22.919Z,110.27
2019-01-25T03:32:55.447Z,184.27
2019-01-25T03:35:27.711Z,131.63
2019-01-25T03:37:59.476Z,236.87
2019-01-25T03:40:31.098Z,177.13
2019-01-25T03:43:03.585Z,147.63
2019-01-25T03:45:36.879Z,262.27
2019-01-25T03:48:08.909Z,168.53
2019-01-25T03:50:40.853Z,229.27
2019-01-25T03:53:12.755Z,391.17
2019-01-25T03:55:45.341Z,270.47
2019-01-25T03:58:18.128Z,279.50
2019-01-25T04:00:49.637Z,304.90
2019-01-25T04:03:21.657Z,224.07
2019-01-25T04:05:54.899Z,260.97
2019-01-25T04:08:26.905Z,205.70
2019-01-25T04:11:03.794Z,282.73
2019-01-25T04:13:33.337Z,199.73
2019-01-25T04:16:06.076Z,196.03
2019-01-25T04:18:37.634Z,275.27
2019-01-25T04:21:09.255Z,230.53
2019-01-25T04:23:40.748Z,264.77
2019-01-25T04:26:12.877Z,291.63
2019-01-25T04:28:44.591Z,194.97
2019-01-25T04:31:21.243Z,229.87
2019-01-25T04:33:52.862Z,223.03
2019-01-25T04:36:24.772Z,178.97
2019-01-25T04:38:58.012Z,210.10
2019-01-25T04:41:30.523Z,127.63
2019-01-25T04:44:02.304Z,202.57
2019-01-25T04:46:34.150Z,227.67
2019-01-25T04:49:05.699Z,184.93
2019-01-25T04:51:37.634Z,275.27
2019-01-25T04:54:09.720Z,186.20
2019-01-25T04:56:42.698Z,190.03
2019-01-25T04:59:15.575Z,422.17
2019-01-25T05:01:48.486Z,116.97
2019-01-25T05:04:20.006Z,306.10
2019-01-25T05:06:51.710Z,133.20
2019-01-25T05:09:23.268Z,365.13
2019-01-25T05:11:54.824Z,206.40
2019-01-25T05:14:27.793Z,459.97
2019-01-25T05:17:01.152Z,323.87
2019-01-25T05:19:41.316Z,272.10
2019-01-25T05:22:13.951Z,412.23
2019-01-25T05:24:46.997Z,337.50
2019-01-25T05:27:18.493Z,294.70
2019-01-25T05:29:56.880Z,271.87
2019-01-25T05:32:28.505Z,351.80
2019-01-25T05:35:00.303Z,263.43
2019-01-25T05:37:31.881Z,272.17
2019-01-25T05:40:03.465Z,181.43
2019-01-25T05:42:38.565Z,255.73
2019-01-25T05:45:12.079Z,160.23
2019-01-25T05:47:43.655Z,169.37
2019-01-25T05:50:15.724Z,247.23
2019-01-25T05:52:47.532Z,153.00
2019-01-25T05:55:20.452Z,189.00
2019-01-25T05:57:55.228Z,142.80
2019-01-25T06:00:30.451Z,198.70
2019-01-25T06:03:11.869Z,210.13
2019-01-25T06:05:45.908Z,313.50
2019-01-25T06:08:31.920Z,334.60
2019-01-25T06:11:12.675Z,253.63
2019-01-25T06:13:45.228Z,265.43
2019-01-25T06:16:17.238Z,352.10
2019-01-25T06:18:50.536Z,207.07
2019-01-25T06:21:23.419Z,281.77
2019-01-25T06:23:56.621Z,269.87
2019-01-25T06:26:28.536Z,268.57
2019-01-25T06:29:00.064Z,287.67
2019-01-25T06:31:33.159Z,448.27
2019-01-25T06:34:04.678Z,283.97
2019-01-25T06:36:36.190Z,124.37
2019-01-25T06:39:09.771Z,170.23
2019-01-25T06:41:44.174Z,268.73
2019-01-25T06:44:14.716Z,219.63
2019-01-25T06:46:46.384Z,169.73
2019-01-25T06:49:18.234Z,173.83
2019-01-25T06:51:50.056Z,138.63
2019-01-25T06:54:22.462Z,146.83
2019-01-25T06:56:54.717Z,303.57
2019-01-25T06:59:34.162Z,243.27
2019-01-25T07:02:12.238Z,197.90
2019-01-25T07:04:44.907Z,228.13
2019-01-25T07:07:25.042Z,207.30
2019-01-25T07:09:56.618Z,245.87
2019-01-25T07:12:28.314Z,209.10
2019-01-25T07:14:59.985Z,181.00
2019-01-25T07:17:31.920Z,138.73
2019-01-25T07:20:03.999Z,229.37
2019-01-25T07:22:35.907Z,206.77
2019-01-25T07:25:09.889Z,280.20
2019-01-25T07:27:43.594Z,213.83
2019-01-25T07:30:15.350Z,214.57
2019-01-25T07:32:50.262Z,242.93
2019-01-25T07:35:22.673Z,226.60
2019-01-25T07:37:54.382Z,181.77
2019-01-25T07:40:26.430Z,212.70
2019-01-25T07:42:58.043Z,152.67
2019-01-25T07:45:31.506Z,176.83
2019-01-25T07:48:03.117Z,200.73
2019-01-25T07:50:36.988Z,178.43
2019-01-25T07:53:09.056Z,159.60
2019-01-25T07:55:42.289Z,152.33
2019-01-25T07:58:14.240Z,247.37
2019-01-25T08:00:45.946Z,164.07
2019-01-25T08:03:19.480Z,151.63
2019-01-25T08:05:51.120Z,160.73
2019-01-25T08:08:24.217Z,157.73
2019-01-25T08:10:55.746Z,171.33
2019-01-25T08:13:27.610Z,167.83
2019-01-25T08:15:59.302Z,133.37
2019-01-25T08:18:30.873Z,189.90
2019-01-25T08:21:02.797Z,147.87
2019-01-25T08:23:35.889Z,127.63
2019-01-25T08:26:09.088Z,148.90
2019-01-25T08:28:40.699Z,166.43
2019-01-25T08:31:13.091Z,173.93
2019-01-25T08:33:45.443Z,174.20
2019-01-25T08:36:17.243Z,157.97
2019-01-25T08:38:50.034Z,229.77
2019-01-25T08:41:23.547Z,230.67
2019-01-25T08:43:55.083Z,177.73
2019-01-25T08:46:28.726Z,166.87
2019-01-25T08:49:00.243Z,232.73
2019-01-25T08:51:33.161Z,146.37
2019-01-25T08:54:06.281Z,181.20
2019-01-25T08:56:37.860Z,202.17
2019-01-25T08:59:12.877Z,197.10
2019-01-25T09:01:45.770Z,237.77
2019-01-25T09:04:19.108Z,292.13
2019-01-25T09:06:53.349Z,232.83
2019-01-25T09:09:25.512Z,208.63
2019-01-25T09:11:56.888Z,199.53
2019-01-25T09:14:28.840Z,185.37
2019-01-25T09:17:01.479Z,196.00
2019-01-25T09:19:33.317Z,168.00
2019-01-25T09:22:05.071Z,189.03
2019-01-25T09:24:36.625Z,198.63
2019-01-25T09:27:08.465Z,183.73
2019-01-25T09:29:40.160Z,186.57
2019-01-25T09:32:12.042Z,179.87
2019-01-25T09:34:44.112Z,171.47
2019-01-25T09:37:16.998Z,183.63
2019-01-25T09:39:49.739Z,187.63
2019-01-25T09:42:21.422Z,162.60
2019-01-25T09:44:53.119Z,145.53
2019-01-25T09:47:26.050Z,133.83
2019-01-25T09:49:59.502Z,143.57
2019-01-25T09:52:31.714Z,140.70
2019-01-25T09:55:04.004Z,132.57
2019-01-25T09:57:35.561Z,125.77
2019-01-25T10:00:34.437Z,131.87
2019-01-25T10:03:05.827Z,140.47
2019-01-25T10:05:37.753Z,128.47
2019-01-25T10:08:09.377Z,121.20
2019-01-25T10:10:40.948Z,120.93
2019-01-25T10:13:12.396Z,122.30
2019-01-25T10:15:45.721Z,108.03
2019-01-25T10:18:17.783Z,107.33
2019-01-25T10:20:49.185Z,104.67
2019-01-25T10:23:20.725Z,127.13
2019-01-25T10:25:54.485Z,139.17
2019-01-25T10:28:26.095Z,141.40
2019-01-25T10:30:58.093Z,109.83
2019-01-25T10:33:31.243Z,98.23
2019-01-25T10:36:05.042Z,94.37
2019-01-25T10:38:36.417Z,96.60
2019-01-25T10:41:09.777Z,90.27
2019-01-25T10:43:41.437Z,95.13
2019-01-25T10:46:13.063Z,91.77
2019-01-25T10:48:44.810Z,82.13
2019-01-25T10:51:18.135Z,87.87
2019-01-25T10:53:50.071Z,80.30
2019-01-25T10:56:22.000Z,94.07
2019-01-25T10:58:53.581Z,73.63
2019-01-25T11:01:27.097Z,76.00
2019-01-25T11:03:58.957Z,72.27
2019-01-25T11:06:32.091Z,70.53
2019-01-25T11:09:06.040Z,80.47
2019-01-25T11:11:37.833Z,80.90
2019-01-25T11:14:09.393Z,76.87
2019-01-25T11:16:43.930Z,81.57
2019-01-25T11:19:19.021Z,70.33
2019-01-25T11:21:51.019Z,67.93
2019-01-25T11:24:22.518Z,70.40
2019-01-25T11:26:54.007Z,72.17
2019-01-25T11:29:25.762Z,71.33
2019-01-25T11:31:57.830Z,66.67
2019-01-25T11:34:33.097Z,65.30
2019-01-25T11:37:04.616Z,68.97
2019-01-25T11:39:36.162Z,65.93
2019-01-25T11:42:07.914Z,68.03
2019-01-25T11:44:41.301Z,63.07
2019-01-25T11:47:13.201Z,63.70
2019-01-25T11:49:44.656Z,67.70
2019-01-25T11:52:17.560Z,61.57
2019-01-25T11:54:50.476Z,70.23
2019-01-25T11:57:23.894Z,57.70
2019-01-25T11:59:56.920Z,64.80
2019-01-25T12:02:29.200Z,54.97
2019-01-25T12:05:00.749Z,63.97
2019-01-25T12:07:32.189Z,59.40
2019-01-25T12:10:05.790Z,54.30
2019-01-25T12:12:38.772Z,72.13
2019-01-25T12:15:13.356Z,56.17
2019-01-25T12:17:46.509Z,59.80
2019-01-25T12:20:25.398Z,59.87
2019-01-25T12:22:57.698Z,54.57
2019-01-25T12:25:29.504Z,60.43
2019-01-25T12:28:05.321Z,56.47
2019-01-25T12:30:38.345Z,59.47
2019-01-25T12:33:12.756Z,53.17
2019-01-25T12:35:45.468Z,50.33
2019-01-25T12:38:19.283Z,54.03
2019-01-25T12:40:52.104Z,55.40
2019-01-25T12:43:24.455Z,51.17
2019-01-25T12:45:57.591Z,53.47
2019-01-25T12:48:29.661Z,50.60
2019-01-25T12:51:32.021Z,49.07
2019-01-25T12:54:03.638Z,49.93
2019-01-25T12:56:35.671Z,56.47
2019-01-25T12:59:10.435Z,48.10
2019-01-25T13:01:44.794Z,52.27
2019-01-25T13:04:17.312Z,52.53
2019-01-25T13:06:49.019Z,49.17
2019-01-25T13:09:22.247Z,52.13
2019-01-25T13:11:54.025Z,61.23
2019-01-25T13:14:28.955Z,54.47
2019-01-25T13:17:00.293Z,50.90
2019-01-25T13:19:31.867Z,66.17
2019-01-25T13:22:03.741Z,59.37
2019-01-25T13:24:35.713Z,64.13
2019-01-25T13:27:07.701Z,51.50
2019-01-25T13:29:39.514Z,68.23
2019-01-25T13:32:14.493Z,63.93
2019-01-25T13:34:45.154Z,56.00
2019-01-25T13:37:16.721Z,66.23
2019-01-25T13:39:48.463Z,58.63
2019-01-25T13:42:20.017Z,64.33
2019-01-25T13:44:52.625Z,51.37
2019-01-25T13:47:25.793Z,51.03
2019-01-25T13:49:57.915Z,51.00
2019-01-25T13:52:30.704Z,53.50
2019-01-25T13:55:04.395Z,53.37
2019-01-25T13:57:36.165Z,51.13
2019-01-25T14:00:11.869Z,50.23
2019-01-25T14:02:45.625Z,52.37
2019-01-25T14:05:17.579Z,51.90
2019-01-25T14:07:52.474Z,48.57
2019-01-25T14:10:29.276Z,49.60
2019-01-25T14:13:01.526Z,54.53
2019-01-25T14:15:33.800Z,47.27
2019-01-25T14:18:06.226Z,57.53
2019-01-25T14:20:37.826Z,48.03
2019-01-25T14:23:09.424Z,52.10
2019-01-25T14:25:40.986Z,50.17
2019-01-25T14:28:12.538Z,47.97
2019-01-25T14:30:44.159Z,41.33
2019-01-25T14:33:16.935Z,45.83
2019-01-25T14:35:51.097Z,40.50
2019-01-25T14:38:22.670Z,41.57
2019-01-25T14:40:54.712Z,42.10
2019-01-25T14:43:26.608Z,38.57
2019-01-25T14:45:59.344Z,45.67
2019-01-25T14:48:32.215Z,39.60
2019-01-25T14:51:03.742Z,40.17
2019-01-25T14:53:35.372Z,36.03
2019-01-25T14:56:11.060Z,38.07
2019-01-25T14:58:44.632Z,39.63
2019-01-25T15:01:16.374Z,39.63
2019-01-25T15:03:49.408Z,41.13
2019-01-25T15:06:21.029Z,38.23
2019-01-25T15:08:52.836Z,37.97
2019-01-25T15:11:24.712Z,38.53
2019-01-25T15:14:02.454Z,39.23
2019-01-25T15:16:33.963Z,41.23
2019-01-25T15:19:07.371Z,40.45
2019-01-25T15:21:42.537Z,41.83
2019-01-25T15:24:15.254Z,39.27
2019-01-25T15:26:50.456Z,40.30
2019-01-25T15:29:22.795Z,41.50
2019-01-25T15:31:55.068Z,44.47
2019-01-25T15:34:27.242Z,44.47
2019-01-25T15:36:58.910Z,47.00
2019-01-25T15:39:30.927Z,84.83
2019-01-25T15:42:02.484Z,49.47
2019-01-25T15:44:34.121Z,50.17
2019-01-25T15:47:05.669Z,44.37
2019-01-25T15:49:37.696Z,54.27
2019-01-25T15:52:09.569Z,54.93
2019-01-25T15:54:41.799Z,65.30
2019-01-25T15:57:13.325Z,58.50
2019-01-25T15:59:46.554Z,50.63
2019-01-25T16:02:18.213Z,53.47
2019-01-25T16:04:52.040Z,50.97
2019-01-25T16:07:24.438Z,56.30
2019-01-25T16:09:56.634Z,54.67
2019-01-25T16:12:28.191Z,52.57
2019-01-25T16:15:01.083Z,57.30
2019-01-25T16:17:32.489Z,44.73
2019-01-25T16:20:04.607Z,56.80
2019-01-25T16:22:36.467Z,45.07
2019-01-25T16:25:12.712Z,52.00
2019-01-25T16:27:44.200Z,54.87
2019-01-25T16:30:18.561Z,55.97
2019-01-25T16:32:51.893Z,47.30
2019-01-25T16:35:24.556Z,58.30
2019-01-25T16:37:57.100Z,67.33
2019-01-25T16:40:30.962Z,50.17
2019-01-25T16:43:03.960Z,48.93
2019-01-25T16:45:38.297Z,77.37
2019-01-25T16:48:11.741Z,67.83
2019-01-25T16:50:43.243Z,63.80
2019-01-25T16:53:15.405Z,44.00
2019-01-25T16:55:47.344Z,47.77
2019-01-25T16:58:19.891Z,51.27
2019-01-25T17:00:51.352Z,46.50
2019-01-25T17:03:23.338Z,45.20
2019-01-25T17:05:54.994Z,45.47
2019-01-25T17:08:27.358Z,43.27
2019-01-25T17:10:59.014Z,47.53
2019-01-25T17:13:31.012Z,41.43
2019-01-25T17:16:03.990Z,46.60
2019-01-25T17:18:36.525Z,46.87
2019-01-25T17:21:08.412Z,40.20
2019-01-25T17:23:40.168Z,43.13
2019-01-25T17:26:12.028Z,49.07
2019-01-25T17:28:45.067Z,43.33
2019-01-25T17:31:17.010Z,41.30
2019-01-25T17:33:48.336Z,47.67
2019-01-25T17:36:19.832Z,42.87
2019-01-25T17:38:52.725Z,44.33
2019-01-25T17:41:26.551Z,47.97
2019-01-25T17:43:58.252Z,47.80
2019-01-25T17:46:30.863Z,46.57
2019-01-25T17:49:02.370Z,46.93
2019-01-25T17:51:34.225Z,48.00
2019-01-25T17:54:06.787Z,48.93
2019-01-25T17:56:38.673Z,57.10
2019-01-25T17:59:11.582Z,59.13
2019-01-25T18:01:44.523Z,48.87
2019-01-25T18:04:16.175Z,55.97
2019-01-25T18:06:47.932Z,53.67
2019-01-25T18:09:19.976Z,52.93
2019-01-25T18:11:51.457Z,52.10
2019-01-25T18:14:23.095Z,50.20
2019-01-25T18:16:55.146Z,48.77
2019-01-25T18:19:27.119Z,54.73
2019-01-25T18:21:59.035Z,55.50
2019-01-25T18:24:32.579Z,54.80
2019-01-25T18:27:05.700Z,55.57
2019-01-25T18:29:43.497Z,49.73
2019-01-25T18:32:15.490Z,50.43
2019-01-25T18:34:47.875Z,48.27
2019-01-25T18:37:19.297Z,50.70
2019-01-25T18:39:52.299Z,51.10
2019-01-25T18:42:24.022Z,53.40
2019-01-25T18:44:56.893Z,50.47
2019-01-25T18:47:28.684Z,59.43
2019-01-25T18:50:01.159Z,58.30
2019-01-25T18:52:32.671Z,54.73
2019-01-25T18:55:05.825Z,61.43
2019-01-25T18:57:39.456Z,59.63
2019-01-25T19:00:15.103Z,58.07
2019-01-25T19:02:46.844Z,66.20
2019-01-25T19:05:19.705Z,56.53
2019-01-25T19:07:51.180Z,60.83
2019-01-25T19:10:25.899Z,59.00
2019-01-25T19:12:57.438Z,55.10
2019-01-25T19:15:30.084Z,51.60
2019-01-25T19:18:01.982Z,54.60
2019-01-25T19:20:33.669Z,54.83
2019-01-25T19:23:05.484Z,55.83
2019-01-25T19:25:37.168Z,60.27
2019-01-25T19:28:09.136Z,64.17
2019-01-25T19:30:42.824Z,61.87
2019-01-25T19:33:14.393Z,62.33
2019-01-25T19:35:46.600Z,53.67
2019-01-25T19:38:20.560Z,63.23
2019-01-25T19:40:52.536Z,62.30
2019-01-25T19:43:26.057Z,59.73
2019-01-25T19:45:59.751Z,58.03
2019-01-25T19:48:31.730Z,72.77
2019-01-25T19:51:03.360Z,60.27
2019-01-25T19:53:36.414Z,64.07
2019-01-25T19:56:08.001Z,58.77
2019-01-25T19:58:39.974Z,62.67
2019-01-25T20:01:11.755Z,59.03
2019-01-25T20:03:43.362Z,68.30
2019-01-25T20:06:15.651Z,56.37
2019-01-25T20:08:49.474Z,56.67
2019-01-25T20:11:21.331Z,59.77
2019-01-25T20:13:53.227Z,61.50
2019-01-25T20:16:25.371Z,65.47
2019-01-25T20:18:56.826Z,62.70
2019-01-25T20:21:29.292Z,63.70
2019-01-25T20:24:02.811Z,71.10
2019-01-25T20:26:34.294Z,66.53
2019-01-25T20:29:08.274Z,63.33
2019-01-25T20:31:41.294Z,77.83
2019-01-25T20:34:15.285Z,69.63
2019-01-25T20:36:48.144Z,71.20
2019-01-25T20:39:20.812Z,65.80
2019-01-25T20:41:52.800Z,69.00
2019-01-25T20:44:24.374Z,71.30
2019-01-25T20:46:59.521Z,67.43
2019-01-25T20:49:32.049Z,73.43
2019-01-25T20:52:04.764Z,65.10
2019-01-25T20:54:36.673Z,74.90
2019-01-25T20:57:08.147Z,65.87
2019-01-25T20:59:39.902Z,64.67
2019-01-25T21:02:12.001Z,67.20
2019-01-25T21:04:43.833Z,61.00
2019-01-25T21:07:15.401Z,65.20
2019-01-25T21:09:47.109Z,61.90
2019-01-25T21:12:19.113Z,54.60
2019-01-25T21:14:52.725Z,57.40
2019-01-25T21:17:24.466Z,61.10
2019-01-25T21:19:56.445Z,58.43
2019-01-25T21:22:27.855Z,56.57
2019-01-25T21:24:59.493Z,58.33
2019-01-25T21:27:39.703Z,53.77
2019-01-25T21:30:18.546Z,56.93
2019-01-25T21:32:50.229Z,54.90
2019-01-25T21:35:22.545Z,57.13
2019-01-25T21:37:55.211Z,58.00
2019-01-25T21:40:30.119Z,57.00
2019-01-25T21:43:01.672Z,59.50
2019-01-25T21:45:42.672Z,52.53
2019-01-25T21:48:15.372Z,59.40
2019-01-25T21:50:48.252Z,52.40
2019-01-25T21:53:21.375Z,55.33
2019-01-25T21:55:52.919Z,54.03
2019-01-25T21:58:24.522Z,51.27
2019-01-25T22:00:56.301Z,57.10
2019-01-25T22:03:27.828Z,45.17
2019-01-25T22:05:59.394Z,45.67
2019-01-25T22:08:32.484Z,47.23
2019-01-25T22:11:04.676Z,50.47
2019-01-25T22:13:37.698Z,47.67
2019-01-25T22:16:09.150Z,53.33
2019-01-25T22:18:40.922Z,46.50
2019-01-25T22:21:12.374Z,46.40
2019-01-25T22:23:45.592Z,51.60
2019-01-25T22:26:17.295Z,47.97
2019-01-25T22:28:48.794Z,46.40
2019-01-25T22:31:21.421Z,46.40
2019-01-25T22:33:55.083Z,49.20
2019-01-25T22:36:27.068Z,44.70
2019-01-25T22:39:00.377Z,52.23
2019-01-25T22:41:33.360Z,50.70
2019-01-25T22:44:05.272Z,44.63
2019-01-25T22:46:36.794Z,42.47
2019-01-25T22:49:08.367Z,39.17
2019-01-25T22:51:41.149Z,42.10
2019-01-25T22:54:14.445Z,39.40
2019-01-25T22:56:45.933Z,39.77
2019-01-25T22:59:18.791Z,39.77
2019-01-25T23:01:50.180Z,41.90
2019-01-25T23:04:50.273Z,39.97
2019-01-25T23:07:27.384Z,41.27
2019-01-25T23:10:20.067Z,38.93
2019-01-25T23:12:51.701Z,42.40
2019-01-25T23:15:25.443Z,37.20
2019-01-25T23:17:56.916Z,38.03
2019-01-25T23:20:28.737Z,32.63
2019-01-25T23:23:02.234Z,36.90
2019-01-25T23:25:33.620Z,33.80
2019-01-25T23:28:05.169Z,36.43
2019-01-25T23:30:37.799Z,39.60
2019-01-25T23:33:09.419Z,34.80
2019-01-25T23:35:41.039Z,33.67
2019-01-25T23:38:12.576Z,33.50
2019-01-25T23:40:44.703Z,34.57
2019-01-25T23:43:16.449Z,26.27
2019-01-25T23:45:48.303Z,34.17
2019-01-25T23:48:20.151Z,27.77
2019-01-25T23:50:53.419Z,30.80
2019-01-25T23:53:25.053Z,31.00
2019-01-25T23:55:57.983Z,33.40
2019-01-25T23:58:30.153Z,33.50
